createdAt,value
2022-09-23T00:01:18.982Z,9.58
2022-09-23T00:03:46.917Z,9.43
2022-09-23T00:06:16.552Z,9.47
2022-09-23T00:08:44.785Z,9.58
2022-09-23T00:11:18.702Z,9.53
2022-09-23T00:13:48.257Z,9.61
2022-09-23T00:16:22.641Z,9.60
2022-09-23T00:18:50.936Z,9.35
2022-09-23T00:21:21.796Z,9.53
2022-09-23T00:23:49.496Z,9.47
2022-09-23T00:26:19.252Z,9.48
2022-09-23T00:28:47.014Z,9.43
2022-09-23T00:31:18.342Z,9.42
2022-09-23T00:33:45.662Z,9.55
2022-09-23T00:36:16.192Z,9.54
2022-09-23T00:38:44.933Z,9.51
2022-09-23T00:41:16.395Z,9.37
2022-09-23T00:43:54.756Z,9.47
2022-09-23T00:46:28.650Z,9.46
2022-09-23T00:49:03.608Z,9.39
2022-09-23T00:51:38.782Z,9.31
2022-09-23T00:54:06.900Z,9.22
2022-09-23T00:56:35.869Z,9.04
2022-09-23T00:59:03.961Z,9.11
2022-09-23T01:01:31.133Z,9.26
2022-09-23T01:03:59.084Z,9.07
2022-09-23T01:06:26.683Z,8.99
2022-09-23T01:08:53.930Z,9.03
2022-09-23T01:11:29.879Z,9.14
2022-09-23T01:14:09.212Z,9.14
2022-09-23T01:16:39.363Z,9.17
2022-09-23T01:19:28.074Z,9.18
2022-09-23T01:22:05.230Z,9.19
2022-09-23T01:24:49.304Z,9.08
2022-09-23T01:27:57.872Z,9.17
2022-09-23T01:31:02.086Z,9.14
2022-09-23T01:33:55.904Z,9.14
2022-09-23T01:36:36.952Z,9.13
2022-09-23T01:39:13.491Z,9.03
2022-09-23T01:42:05.801Z,9.14
2022-09-23T01:45:00.577Z,9.15
2022-09-23T01:47:45.094Z,9.06
2022-09-23T01:50:37.939Z,9.07
2022-09-23T01:53:18.434Z,9.16
2022-09-23T01:55:51.728Z,9.13
2022-09-23T01:58:29.333Z,9.10
2022-09-23T02:01:07.447Z,9.13
2022-09-23T02:03:42.695Z,9.17
2022-09-23T02:06:34.891Z,8.92
2022-09-23T02:09:12.975Z,9.18
2022-09-23T02:11:42.161Z,9.09
2022-09-23T02:14:15.864Z,9.17
2022-09-23T02:16:47.725Z,9.22
2022-09-23T02:19:24.497Z,9.14
2022-09-23T02:22:00.963Z,9.20
2022-09-23T02:24:32.385Z,9.22
2022-09-23T02:27:02.251Z,9.23
2022-09-23T02:29:40.222Z,9.05
2022-09-23T02:32:13.166Z,9.22
2022-09-23T02:34:43.802Z,9.10
2022-09-23T02:37:31.497Z,9.18
2022-09-23T02:40:25.264Z,9.17
2022-09-23T02:43:07.977Z,9.22
2022-09-23T02:45:38.260Z,9.12
2022-09-23T02:48:13.422Z,9.18
2022-09-23T02:50:40.630Z,8.91
2022-09-23T02:53:08.064Z,9.14
2022-09-23T02:55:35.030Z,9.04
2022-09-23T02:58:03.685Z,9.03
2022-09-23T03:00:50.441Z,9.04
2022-09-23T03:03:30.231Z,9.16
2022-09-23T03:05:59.950Z,9.00
2022-09-23T03:08:36.859Z,9.14
2022-09-23T03:11:11.849Z,9.11
2022-09-23T03:14:07.140Z,9.20
2022-09-23T03:17:00.707Z,9.23
2022-09-23T03:19:34.344Z,9.27
2022-09-23T03:22:18.646Z,9.08
2022-09-23T03:24:51.856Z,9.32
2022-09-23T03:27:28.697Z,9.34
2022-09-23T03:29:57.292Z,9.37
2022-09-23T03:32:29.837Z,9.20
2022-09-23T03:35:00.300Z,9.20
2022-09-23T03:37:35.974Z,9.20
2022-09-23T03:40:09.305Z,9.30
2022-09-23T03:42:38.926Z,9.33
2022-09-23T03:45:10.399Z,9.24
2022-09-23T03:47:39.805Z,9.19
2022-09-23T03:50:07.697Z,9.32
2022-09-23T03:52:35.046Z,9.28
2022-09-23T03:55:02.242Z,9.20
2022-09-23T03:57:30.564Z,9.27
2022-09-23T03:59:57.739Z,9.38
2022-09-23T04:02:25.326Z,9.38
2022-09-23T04:04:52.820Z,9.35
2022-09-23T04:07:20.585Z,9.41
2022-09-23T04:09:48.369Z,9.42
2022-09-23T04:12:16.933Z,9.24
2022-09-23T04:14:45.227Z,9.42
2022-09-23T04:17:13.178Z,9.32
2022-09-23T04:19:40.626Z,9.51
2022-09-23T04:22:08.906Z,9.42
2022-09-23T04:24:38.123Z,9.30
2022-09-23T04:27:06.165Z,9.30
2022-09-23T04:29:33.415Z,9.54
2022-09-23T04:32:00.697Z,9.60
2022-09-23T04:34:28.353Z,9.34
2022-09-23T04:36:55.671Z,9.49
2022-09-23T04:39:24.105Z,9.69
2022-09-23T04:41:53.511Z,9.73
2022-09-23T04:44:22.275Z,9.84
2022-09-23T04:46:49.461Z,9.74
2022-09-23T04:49:16.777Z,9.80
2022-09-23T04:51:46.391Z,9.98
2022-09-23T04:54:15.163Z,10.02
2022-09-23T04:56:42.669Z,9.76
2022-09-23T04:59:09.884Z,10.02
2022-09-23T05:01:38.530Z,10.11
2022-09-23T05:04:08.956Z,10.00
2022-09-23T05:06:36.469Z,10.06
2022-09-23T05:09:06.248Z,10.05
2022-09-23T05:11:34.289Z,10.19
2022-09-23T05:14:01.519Z,10.24
2022-09-23T05:16:29.626Z,10.09
2022-09-23T05:18:58.503Z,10.28
2022-09-23T05:21:29.119Z,10.19
2022-09-23T05:23:59.367Z,10.23
2022-09-23T05:26:29.522Z,9.92
2022-09-23T05:28:58.216Z,10.28
2022-09-23T05:31:28.394Z,10.32
2022-09-23T05:33:59.826Z,10.37
2022-09-23T05:36:28.574Z,10.46
2022-09-23T05:38:56.865Z,10.47
2022-09-23T05:41:25.427Z,10.64
2022-09-23T05:43:54.462Z,10.73
2022-09-23T05:46:24.108Z,10.69
2022-09-23T05:48:52.752Z,10.67
2022-09-23T05:51:28.767Z,10.82
2022-09-23T05:53:58.530Z,11.01
2022-09-23T05:56:28.488Z,11.16
2022-09-23T05:58:58.648Z,11.30
2022-09-23T06:01:27.940Z,11.85
2022-09-23T06:03:57.555Z,12.29
2022-09-23T06:06:30.194Z,12.75
2022-09-23T06:09:02.012Z,13.10
2022-09-23T06:11:34.219Z,13.16
2022-09-23T06:14:02.522Z,13.32
2022-09-23T06:16:33.197Z,13.26
2022-09-23T06:19:06.118Z,13.05
2022-09-23T06:21:38.873Z,13.19
2022-09-23T06:24:07.079Z,13.24
2022-09-23T06:26:35.428Z,13.08
2022-09-23T06:29:04.099Z,13.16
2022-09-23T06:31:31.477Z,13.13
2022-09-23T06:34:09.792Z,12.89
2022-09-23T06:36:43.955Z,12.77
2022-09-23T06:39:16.347Z,12.82
2022-09-23T06:41:45.509Z,12.73
2022-09-23T06:44:16.408Z,12.67
2022-09-23T06:46:44.561Z,12.71
2022-09-23T06:49:13.661Z,12.77
2022-09-23T06:51:41.608Z,12.69
2022-09-23T06:54:09.179Z,12.63
2022-09-23T06:56:39.429Z,13.02
2022-09-23T06:59:09.864Z,13.14
2022-09-23T07:01:37.415Z,13.28
2022-09-23T07:04:04.690Z,13.09
2022-09-23T07:06:32.125Z,13.38
2022-09-23T07:08:59.117Z,13.46
2022-09-23T07:11:27.351Z,13.57
2022-09-23T07:13:54.606Z,14.50
2022-09-23T07:16:21.815Z,15.18
2022-09-23T07:18:48.990Z,15.58
2022-09-23T07:21:18.525Z,16.33
2022-09-23T07:23:48.229Z,16.83
2022-09-23T07:26:19.424Z,16.89
2022-09-23T07:28:47.952Z,16.91
2022-09-23T07:31:29.950Z,16.72
2022-09-23T07:44:49.957Z,13.90
2022-09-23T07:47:17.340Z,14.08
2022-09-23T07:49:44.765Z,14.05
2022-09-23T07:52:12.941Z,14.28
2022-09-23T07:54:40.638Z,14.30
2022-09-23T07:57:07.801Z,14.33
2022-09-23T07:59:34.891Z,14.30
2022-09-23T08:02:02.398Z,14.42
2022-09-23T08:04:31.650Z,14.38
2022-09-23T08:07:04.823Z,14.43
2022-09-23T08:09:41.625Z,14.29
2022-09-23T08:12:16.146Z,14.31
2022-09-23T08:14:44.172Z,14.19
2022-09-23T08:17:15.111Z,13.51
2022-09-23T08:19:43.352Z,13.57
2022-09-23T08:22:12.407Z,13.48
2022-09-23T08:24:39.956Z,13.38
2022-09-23T08:27:07.173Z,13.25
2022-09-23T08:29:35.316Z,12.90
2022-09-23T08:32:02.828Z,12.78
2022-09-23T08:34:32.838Z,12.57
2022-09-23T08:37:23.215Z,12.69
2022-09-23T08:39:52.937Z,12.07
2022-09-23T08:42:28.929Z,12.58
2022-09-23T08:45:00.076Z,12.71
2022-09-23T08:47:35.751Z,12.81
2022-09-23T08:50:18.741Z,13.02
2022-09-23T08:52:58.748Z,12.97
2022-09-23T08:55:44.631Z,13.31
2022-09-23T08:58:42.378Z,13.31
2022-09-23T09:01:28.625Z,13.69
2022-09-23T09:03:57.311Z,13.56
2022-09-23T09:06:51.855Z,13.92
2022-09-23T09:09:31.331Z,13.73
2022-09-23T09:12:22.898Z,13.65
2022-09-23T09:15:07.979Z,13.57
2022-09-23T09:17:38.939Z,13.63
2022-09-23T09:20:41.618Z,13.64
2022-09-23T09:23:11.991Z,13.70
2022-09-23T09:26:24.594Z,13.83
2022-09-23T09:29:39.632Z,13.18
2022-09-23T09:32:34.005Z,14.00
2022-09-23T09:35:24.506Z,14.07
2022-09-23T09:37:53.469Z,14.26
2022-09-23T09:40:21.026Z,14.40
2022-09-23T09:42:50.510Z,14.36
2022-09-23T09:45:28.025Z,14.57
2022-09-23T09:47:56.917Z,14.69
2022-09-23T09:50:47.768Z,14.94
2022-09-23T09:53:28.186Z,15.09
2022-09-23T09:56:05.970Z,15.23
2022-09-23T09:59:11.821Z,15.16
2022-09-23T10:02:30.231Z,16.61
2022-09-23T10:05:05.593Z,17.27
2022-09-23T10:07:35.193Z,17.64
2022-09-23T10:10:32.292Z,18.28
2022-09-23T10:16:43.058Z,19.55
2022-09-23T10:19:38.441Z,19.29
2022-09-23T10:22:21.015Z,18.92
2022-09-23T10:24:55.136Z,18.27
2022-09-23T10:27:36.611Z,17.43
2022-09-23T10:30:24.388Z,17.09
2022-09-23T10:32:55.094Z,16.97
2022-09-23T10:35:24.558Z,16.97
2022-09-23T10:37:56.970Z,16.73
2022-09-23T10:40:48.987Z,16.29
2022-09-23T10:44:00.360Z,16.02
2022-09-23T10:46:41.743Z,15.73
2022-09-23T10:49:35.286Z,15.46
2022-09-23T10:52:20.677Z,15.12
2022-09-23T10:55:03.309Z,14.95
2022-09-23T10:57:47.479Z,14.76
2022-09-23T11:00:23.645Z,14.65
2022-09-23T11:03:26.188Z,14.55
2022-09-23T11:06:13.532Z,14.60
2022-09-23T11:08:56.444Z,14.71
2022-09-23T11:12:21.470Z,14.55
2022-09-23T11:15:16.841Z,14.84
2022-09-23T11:17:47.218Z,14.77
2022-09-23T11:21:06.139Z,14.75
2022-09-23T11:24:02.518Z,14.86
2022-09-23T11:27:13.618Z,14.84
2022-09-23T11:29:59.996Z,14.93
2022-09-23T11:32:27.754Z,15.22
2022-09-23T11:35:11.175Z,15.92
2022-09-23T11:37:51.497Z,16.30
2022-09-23T11:40:22.107Z,15.83
2022-09-23T11:43:32.449Z,17.24
2022-09-23T11:46:31.011Z,18.16
2022-09-23T11:49:01.261Z,18.26
2022-09-23T11:51:37.636Z,18.00
2022-09-23T11:54:23.630Z,17.71
2022-09-23T11:57:04.557Z,17.06
2022-09-23T11:59:39.496Z,16.29
2022-09-23T12:02:29.617Z,15.70
2022-09-23T12:05:13.138Z,15.40
2022-09-23T12:08:05.656Z,15.01
2022-09-23T12:10:57.374Z,14.82
2022-09-23T12:13:30.291Z,14.61
2022-09-23T12:16:36.891Z,14.45
2022-09-23T12:19:28.881Z,14.34
2022-09-23T12:22:18.719Z,14.31
2022-09-23T12:25:18.932Z,14.25
2022-09-23T12:27:51.325Z,13.78
2022-09-23T12:30:33.770Z,14.08
2022-09-23T12:33:10.190Z,13.99
2022-09-23T12:35:46.592Z,14.16
2022-09-23T12:38:48.937Z,14.17
2022-09-23T12:41:52.919Z,13.95
2022-09-23T12:44:42.277Z,14.23
2022-09-23T12:47:15.083Z,14.28
2022-09-23T12:49:43.797Z,14.32
2022-09-23T12:52:10.756Z,14.29
2022-09-23T12:55:22.200Z,14.30
2022-09-23T12:59:01.817Z,14.24
2022-09-23T13:01:39.095Z,13.79
2022-09-23T13:04:45.815Z,14.14
2022-09-23T13:07:17.315Z,14.27
2022-09-23T13:09:51.056Z,14.06
2022-09-23T13:12:24.889Z,14.53
2022-09-23T13:15:54.453Z,14.67
2022-09-23T13:18:52.670Z,14.58
2022-09-23T13:21:44.986Z,14.94
2022-09-23T13:24:33.616Z,15.67
2022-09-23T13:27:06.099Z,15.90
2022-09-23T13:29:58.000Z,15.95
2022-09-23T13:32:31.839Z,15.72
2022-09-23T13:35:04.854Z,15.71
2022-09-23T13:37:40.172Z,15.43
2022-09-23T13:40:10.251Z,15.38
2022-09-23T13:42:41.222Z,14.93
2022-09-23T13:45:15.083Z,14.89
2022-09-23T13:47:44.800Z,14.81
2022-09-23T13:50:20.309Z,14.32
2022-09-23T13:52:53.727Z,14.45
2022-09-23T13:55:39.031Z,14.19
2022-09-23T13:58:21.292Z,13.90
2022-09-23T14:00:49.499Z,13.80
2022-09-23T14:03:18.379Z,13.84
2022-09-23T14:05:46.919Z,13.61
2022-09-23T14:08:15.298Z,13.48
2022-09-23T14:10:46.167Z,13.29
2022-09-23T14:13:35.349Z,13.18
2022-09-23T14:16:04.269Z,13.08
2022-09-23T14:18:46.341Z,12.99
2022-09-23T14:21:36.295Z,12.97
2022-09-23T14:24:16.903Z,12.74
2022-09-23T14:26:56.788Z,12.44
2022-09-23T14:29:27.381Z,12.25
2022-09-23T14:32:06.204Z,12.40
2022-09-23T14:34:42.370Z,12.51
2022-09-23T14:37:40.665Z,12.47
2022-09-23T14:40:23.316Z,12.43
2022-09-23T14:42:57.003Z,12.18
2022-09-23T14:45:28.211Z,12.37
2022-09-23T14:48:05.993Z,12.16
2022-09-23T14:50:37.086Z,12.30
2022-09-23T14:53:25.270Z,12.27
2022-09-23T14:56:07.398Z,12.22
2022-09-23T14:58:52.054Z,12.12
2022-09-23T15:01:32.600Z,12.06
2022-09-23T15:04:31.362Z,12.02
2022-09-23T15:07:03.902Z,11.95
2022-09-23T15:09:41.605Z,11.70
2022-09-23T15:12:14.796Z,11.81
2022-09-23T15:14:46.964Z,11.73
2022-09-23T15:17:23.372Z,11.68
2022-09-23T15:19:57.543Z,11.55
2022-09-23T15:22:25.972Z,11.58
2022-09-23T15:24:54.532Z,11.43
2022-09-23T15:27:33.609Z,11.49
2022-09-23T15:30:19.459Z,11.47
2022-09-23T15:32:47.010Z,11.31
2022-09-23T15:35:21.100Z,11.21
2022-09-23T15:37:49.985Z,11.39
2022-09-23T15:40:24.133Z,11.31
2022-09-23T15:42:56.224Z,11.31
2022-09-23T15:45:36.160Z,11.31
2022-09-23T15:48:12.648Z,11.13
2022-09-23T15:50:41.382Z,10.69
2022-09-23T15:53:13.385Z,11.31
2022-09-23T15:55:40.571Z,11.27
2022-09-23T15:58:07.921Z,11.30
2022-09-23T16:00:36.724Z,11.21
2022-09-23T16:03:06.846Z,11.05
2022-09-23T16:05:39.893Z,10.34
2022-09-23T16:08:10.131Z,11.26
2022-09-23T16:10:38.087Z,11.08
2022-09-23T16:13:08.501Z,11.21
2022-09-23T16:15:35.439Z,11.25
2022-09-23T16:18:02.773Z,11.06
2022-09-23T16:20:30.589Z,10.99
2022-09-23T16:22:59.804Z,11.10
2022-09-23T16:25:29.398Z,10.99
2022-09-23T16:27:58.621Z,11.14
2022-09-23T16:30:28.275Z,11.12
2022-09-23T16:32:56.198Z,11.00
2022-09-23T16:35:28.142Z,11.16
2022-09-23T16:37:56.285Z,11.05
2022-09-23T16:40:24.529Z,11.02
2022-09-23T16:42:54.597Z,11.03
2022-09-23T16:45:23.445Z,10.89
2022-09-23T16:47:52.717Z,10.92
2022-09-23T16:50:25.383Z,10.81
2022-09-23T16:52:56.391Z,10.77
2022-09-23T16:55:25.821Z,10.72
2022-09-23T16:57:54.372Z,10.61
2022-09-23T17:00:41.168Z,10.66
2022-09-23T17:03:26.640Z,10.90
2022-09-23T17:05:55.020Z,10.77
2022-09-23T17:08:23.001Z,10.74
2022-09-23T17:10:58.861Z,10.57
2022-09-23T17:13:30.405Z,10.80
2022-09-23T17:15:57.832Z,10.72
2022-09-23T17:18:27.302Z,10.83
2022-09-23T17:21:01.496Z,10.87
2022-09-23T17:23:31.593Z,10.70
2022-09-23T17:25:59.672Z,10.59
2022-09-23T17:28:27.341Z,10.47
2022-09-23T17:31:00.546Z,10.70
2022-09-23T17:33:30.603Z,10.69
2022-09-23T17:36:00.303Z,10.67
2022-09-23T17:38:29.599Z,10.46
2022-09-23T17:40:59.221Z,10.60
2022-09-23T17:43:26.832Z,10.53
2022-09-23T17:45:56.354Z,10.57
2022-09-23T17:48:25.650Z,10.53
2022-09-23T17:51:04.370Z,10.49
2022-09-23T17:53:35.975Z,10.48
2022-09-23T17:56:06.599Z,10.47
2022-09-23T17:58:36.515Z,10.46
2022-09-23T18:01:05.411Z,10.44
2022-09-23T18:03:33.728Z,10.37
2022-09-23T18:06:09.570Z,10.43
2022-09-23T18:08:36.946Z,10.37
2022-09-23T18:11:13.075Z,10.42
2022-09-23T18:13:40.815Z,10.38
2022-09-23T18:16:08.674Z,10.41
2022-09-23T18:18:37.070Z,10.34
2022-09-23T18:21:07.183Z,10.18
2022-09-23T18:23:37.450Z,10.36
2022-09-23T18:26:05.169Z,10.28
2022-09-23T18:28:34.844Z,10.18
2022-09-23T18:31:02.265Z,10.08
2022-09-23T18:33:29.441Z,10.25
2022-09-23T18:36:00.054Z,10.14
2022-09-23T18:38:27.219Z,10.19
2022-09-23T18:40:57.853Z,10.24
2022-09-23T18:43:25.914Z,10.17
2022-09-23T18:46:01.478Z,10.11
2022-09-23T18:48:49.194Z,10.06
2022-09-23T18:51:18.034Z,10.09
2022-09-23T18:53:50.387Z,10.01
2022-09-23T18:56:20.718Z,9.81
2022-09-23T18:58:52.104Z,10.01
2022-09-23T19:01:21.009Z,9.87
2022-09-23T19:03:54.125Z,9.91
2022-09-23T19:06:22.292Z,9.87
2022-09-23T19:08:53.947Z,9.84
2022-09-23T19:11:22.975Z,9.82
2022-09-23T19:13:58.564Z,9.78
2022-09-23T19:16:27.458Z,9.71
2022-09-23T19:18:55.300Z,9.50
2022-09-23T19:21:23.116Z,9.60
2022-09-23T19:23:53.394Z,9.76
2022-09-23T19:26:26.287Z,9.71
2022-09-23T19:28:57.538Z,9.71
2022-09-23T19:31:26.917Z,9.05
2022-09-23T19:33:57.202Z,9.69
2022-09-23T19:36:32.819Z,9.40
2022-09-23T19:39:03.248Z,9.68
2022-09-23T19:41:33.437Z,9.67
2022-09-23T19:44:07.647Z,9.58
2022-09-23T19:46:37.740Z,9.62
2022-09-23T19:49:07.525Z,9.71
2022-09-23T19:51:35.496Z,9.71
2022-09-23T19:54:04.812Z,9.59
2022-09-23T19:56:33.388Z,9.44
2022-09-23T19:59:03.206Z,9.53
2022-09-23T20:01:31.944Z,9.72
2022-09-23T20:04:00.036Z,9.66
2022-09-23T20:06:32.594Z,9.56
2022-09-23T20:09:00.968Z,9.70
2022-09-23T20:11:29.034Z,9.70
2022-09-23T20:14:09.513Z,9.66
2022-09-23T20:16:37.391Z,9.56
2022-09-23T20:19:05.799Z,9.62
2022-09-23T20:21:34.551Z,9.64
2022-09-23T20:24:08.653Z,9.51
2022-09-23T20:26:54.393Z,9.69
2022-09-23T20:29:21.601Z,9.71
2022-09-23T20:31:49.425Z,9.72
2022-09-23T20:34:16.974Z,9.67
2022-09-23T20:36:44.306Z,9.59
2022-09-23T20:39:11.725Z,9.74
2022-09-23T20:41:39.925Z,9.66
2022-09-23T20:44:10.456Z,9.76
2022-09-23T20:46:38.277Z,9.62
2022-09-23T20:49:08.046Z,9.69
2022-09-23T20:51:36.140Z,9.62
2022-09-23T20:54:04.490Z,9.49
2022-09-23T20:56:32.123Z,9.49
2022-09-23T20:59:04.404Z,9.79
2022-09-23T21:01:36.661Z,9.84
2022-09-23T21:04:06.121Z,9.72
2022-09-23T21:06:37.457Z,9.65
2022-09-23T21:09:06.218Z,9.83
2022-09-23T21:11:34.050Z,9.83
2022-09-23T21:14:02.254Z,9.64
2022-09-23T21:16:30.003Z,9.62
2022-09-23T21:18:58.544Z,9.75
2022-09-23T21:21:26.647Z,9.69
2022-09-23T21:23:53.997Z,9.59
2022-09-23T21:26:23.350Z,9.68
2022-09-23T21:28:57.657Z,9.64
2022-09-23T21:31:28.289Z,9.62
2022-09-23T21:34:01.179Z,9.42
2022-09-23T21:36:31.644Z,9.51
2022-09-23T21:39:01.995Z,9.57
2022-09-23T21:41:30.101Z,9.50
2022-09-23T21:43:57.885Z,9.43
2022-09-23T21:46:26.439Z,9.34
2022-09-23T21:48:55.790Z,9.36
2022-09-23T21:51:26.052Z,9.23
2022-09-23T21:53:55.223Z,9.04
2022-09-23T21:56:27.261Z,9.14
2022-09-23T21:58:55.709Z,9.00
2022-09-23T22:01:25.786Z,9.03
2022-09-23T22:03:56.069Z,8.92
2022-09-23T22:06:24.545Z,8.97
2022-09-23T22:08:59.129Z,8.91
2022-09-23T22:11:47.794Z,8.86
2022-09-23T22:14:17.354Z,8.72
2022-09-23T22:16:45.260Z,8.68
2022-09-23T22:19:13.800Z,8.60
2022-09-23T22:21:42.789Z,8.68
2022-09-23T22:24:11.640Z,8.65
2022-09-23T22:26:44.158Z,8.38
2022-09-23T22:29:32.413Z,8.58
2022-09-23T22:32:19.794Z,8.59
2022-09-23T22:34:50.623Z,8.56
2022-09-23T22:37:28.366Z,8.57
2022-09-23T22:39:56.049Z,8.54
2022-09-23T22:42:23.087Z,8.53
2022-09-23T22:44:50.963Z,8.47
2022-09-23T22:47:20.510Z,8.39
2022-09-23T22:49:48.966Z,8.50
2022-09-23T22:52:21.222Z,8.43
2022-09-23T22:54:48.862Z,8.46
2022-09-23T22:57:16.624Z,8.35
2022-09-23T22:59:48.119Z,8.44
2022-09-23T23:02:17.934Z,8.36
2022-09-23T23:04:48.675Z,8.26
2022-09-23T23:07:21.525Z,8.34
2022-09-23T23:09:52.624Z,8.42
2022-09-23T23:12:21.045Z,8.36
2022-09-23T23:14:49.536Z,8.43
2022-09-23T23:17:17.847Z,8.40
2022-09-23T23:19:45.242Z,8.41
2022-09-23T23:22:12.918Z,8.40
2022-09-23T23:24:40.710Z,8.23
2022-09-23T23:27:07.933Z,8.39
2022-09-23T23:29:35.107Z,8.36
2022-09-23T23:32:02.560Z,8.38
2022-09-23T23:34:29.613Z,8.32
2022-09-23T23:36:56.733Z,8.36
2022-09-23T23:39:25.586Z,8.24
2022-09-23T23:41:55.666Z,8.32
2022-09-23T23:44:24.756Z,8.21
2022-09-23T23:46:56.124Z,8.33
2022-09-23T23:49:24.102Z,8.32
2022-09-23T23:51:51.632Z,8.31
2022-09-23T23:54:19.245Z,8.31
2022-09-23T23:56:46.726Z,8.13
2022-09-23T23:59:13.691Z,8.31
